Time;durP1;ratioP1;P1;durP2;ratioP2;P2;SDS_P1;SDS_P2;PMS_P1;PMS_P2;Temp;Humidity;BMP_temperature;BMP_pressure;BME280_temperature;BME280_humidity;BME280_pressure;Samples;Min_cycle;Max_cycle;Signal;HPM_P1;HPM_P2
2022/07/12 00:01:08;;;;;;;5.77;4.93;;;;;;;18.74;82.88;98783.00;4112735;28;20643;-86
2022/07/12 00:03:11;;;;;;;5.70;5.10;;;;;;;18.77;83.04;98785.38;4112269;28;20631;-86
2022/07/12 00:05:16;;;;;;;5.47;4.97;;;;;;;18.77;82.62;98777.44;4124449;28;20665;-86
2022/07/12 00:07:20;;;;;;;5.80;5.13;;;;;;;18.71;82.61;98785.91;4113980;28;20679;-87
2022/07/12 00:09:23;;;;;;;6.10;5.30;;;;;;;18.69;83.18;98785.22;4101890;28;20695;-86
2022/07/12 00:11:26;;;;;;;5.30;4.80;;;;;;;18.70;83.29;98792.19;4123589;28;20641;-86
2022/07/12 00:13:30;;;;;;;4.83;4.43;;;;;;;18.72;83.43;98795.53;4124255;28;20666;-85
2022/07/12 00:15:33;;;;;;;5.50;4.17;;;;;;;18.72;83.37;98795.53;4126812;28;20649;-86
2022/07/12 00:17:38;;;;;;;5.20;4.40;;;;;;;18.70;83.03;98789.56;4125970;28;21523;-86
2022/07/12 00:19:41;;;;;;;4.50;4.10;;;;;;;18.65;82.88;98789.09;4111327;28;20658;-87
2022/07/12 00:21:45;;;;;;;6.50;4.70;;;;;;;18.67;83.31;98796.91;4111402;28;20678;-86
2022/07/12 00:23:48;;;;;;;4.73;4.30;;;;;;;18.63;83.39;98793.72;4113776;28;21017;-87
2022/07/12 00:26:18;;;;;;;6.13;4.60;;;;;;;18.63;83.53;98795.53;4094560;28;20630;-86
2022/07/12 00:28:21;;;;;;;4.90;4.40;;;;;;;18.63;83.40;98801.63;4127906;28;20677;-86
2022/07/12 00:30:24;;;;;;;4.60;4.20;;;;;;;18.63;83.11;98808.75;4126541;28;20633;-86
2022/07/12 00:32:28;;;;;;;5.33;4.07;;;;;;;18.62;82.94;98792.03;4127149;28;20621;-86
2022/07/12 00:34:31;;;;;;;5.20;4.13;;;;;;;18.63;83.22;98793.72;4125984;28;20668;-86
2022/07/12 00:36:34;;;;;;;5.40;4.50;;;;;;;18.63;83.22;98792.88;4127182;28;20740;-86
2022/07/12 00:38:38;;;;;;;5.13;4.63;;;;;;;18.61;83.32;98787.72;4113038;28;20670;-86
2022/07/12 00:40:41;;;;;;;5.20;4.27;;;;;;;18.56;83.30;98791.75;4107869;28;20681;-87
2022/07/12 00:42:44;;;;;;;4.43;4.03;;;;;;;18.52;83.60;98791.19;4122395;28;20639;-86
2022/07/12 00:44:47;;;;;;;5.27;4.50;;;;;;;18.50;83.11;98787.84;4127782;28;20638;-86
2022/07/12 00:46:50;;;;;;;5.33;4.83;;;;;;;18.46;83.87;98791.75;4113000;28;20625;-86
2022/07/12 00:48:54;;;;;;;4.70;4.30;;;;;;;18.46;83.71;98788.25;4127081;28;20649;-86
2022/07/12 00:50:58;;;;;;;4.90;4.40;;;;;;;18.42;83.58;98779.75;4126032;28;20627;-86
2022/07/12 00:53:01;;;;;;;5.00;4.50;;;;;;;18.41;84.48;98783.34;4110639;28;20666;-86
2022/07/12 00:55:06;;;;;;;6.73;5.00;;;;;;;18.42;84.11;98784.22;4111741;28;20642;-86
2022/07/12 00:57:09;;;;;;;5.00;4.50;;;;;;;18.40;84.33;98778.22;4115424;28;20660;-86
2022/07/12 00:59:12;;;;;;;7.17;4.70;;;;;;;18.40;84.43;98780.03;4113128;28;20654;-86
2022/07/12 01:01:15;;;;;;;6.60;4.30;;;;;;;18.35;84.37;98777.78;4115264;28;21095;-86
2022/07/12 01:03:19;;;;;;;5.20;4.70;;;;;;;18.30;84.61;98777.38;4127800;28;20659;-86
2022/07/12 01:05:23;;;;;;;4.87;4.37;;;;;;;18.26;84.80;98780.41;4131667;28;20637;-86
2022/07/12 01:07:26;;;;;;;5.17;4.67;;;;;;;18.26;84.38;98788.34;4129846;28;21038;-86
2022/07/12 01:09:29;;;;;;;5.17;4.67;;;;;;;18.24;84.60;98790.28;4114944;28;20631;-86
2022/07/12 01:11:35;;;;;;;4.60;4.20;;;;;;;18.24;84.29;98785.00;4132096;28;20626;-87
2022/07/12 01:13:38;;;;;;;5.10;4.60;;;;;;;18.23;84.57;98788.63;4131600;28;20688;-86
2022/07/12 01:15:42;;;;;;;6.87;4.67;;;;;;;18.21;84.73;98788.75;4129325;28;21165;-86
2022/07/12 01:17:45;;;;;;;5.43;4.93;;;;;;;18.20;84.67;98788.88;4130197;28;20762;-86
2022/07/12 01:19:57;;;;;;;6.30;4.40;;;;;;;18.16;85.47;98787.47;4112098;28;20665;-86
2022/07/12 01:22:00;;;;;;;5.50;4.70;;;;;;;18.14;85.18;98784.13;4129761;28;20639;-86
2022/07/12 01:24:06;;;;;;;6.33;4.53;;;;;;;18.11;84.79;98785.19;4129397;28;20644;-86
2022/07/12 01:26:09;;;;;;;4.73;4.23;;;;;;;18.07;84.78;98782.97;4127299;28;20632;-86
2022/07/12 01:28:12;;;;;;;6.33;4.67;;;;;;;18.06;85.51;98778.66;4112436;28;20697;-86
2022/07/12 01:30:15;;;;;;;5.30;4.30;;;;;;;18.05;85.51;98783.09;4129558;28;20636;-86
2022/07/12 01:32:29;;;;;;;6.47;4.93;;;;;;;18.06;85.61;98786.59;4128815;28;20719;-86
2022/07/12 01:34:32;;;;;;;5.50;4.73;;;;;;;18.05;85.37;98790.19;4125435;28;20630;-86
2022/07/12 01:36:36;;;;;;;4.80;4.30;;;;;;;18.04;85.67;98788.50;4116388;28;20768;-86
2022/07/12 01:38:39;;;;;;;4.80;4.23;;;;;;;18.04;86.11;98789.34;4129493;28;20634;-86
2022/07/12 01:40:43;;;;;;;4.60;4.03;;;;;;;17.99;86.10;98788.91;4111799;28;20635;-86
2022/07/12 01:42:47;;;;;;;6.70;5.30;;;;;;;17.97;85.59;98787.38;4110723;28;20634;-86
2022/07/12 01:44:52;;;;;;;4.90;4.40;;;;;;;17.95;86.03;98789.28;4132540;28;20632;-86
2022/07/12 01:46:55;;;;;;;6.80;4.50;;;;;;;17.94;86.39;98788.47;4115447;28;20644;-85
2022/07/12 01:48:58;;;;;;;5.37;4.50;;;;;;;17.91;85.61;98787.91;4127739;28;20738;-86
2022/07/12 01:51:01;;;;;;;6.83;5.00;;;;;;;17.89;86.35;98791.66;4128070;28;20628;-86
2022/07/12 01:53:06;;;;;;;4.90;4.40;;;;;;;17.87;86.10;98788.31;4131313;28;20647;-86
2022/07/12 01:55:10;;;;;;;4.77;4.30;;;;;;;17.85;86.42;98791.09;4112035;28;20669;-86
2022/07/12 01:57:15;;;;;;;4.73;4.33;;;;;;;17.82;86.11;98782.59;4124534;28;20709;-85
2022/07/12 01:59:18;;;;;;;5.23;4.73;;;;;;;17.81;86.69;98779.09;4126380;28;20750;-86
2022/07/12 02:01:21;;;;;;;5.30;4.60;;;;;;;17.77;86.13;98780.34;4116053;28;20645;-85
2022/07/12 02:03:25;;;;;;;5.03;4.53;;;;;;;17.75;87.08;98781.44;4126438;28;20700;-86
2022/07/12 02:05:29;;;;;;;5.00;4.43;;;;;;;17.73;86.52;98780.75;4127520;28;20628;-86
2022/07/12 02:07:32;;;;;;;5.37;4.10;;;;;;;17.71;86.16;98780.03;4128849;28;21085;-85
2022/07/12 02:09:35;;;;;;;5.07;4.57;;;;;;;17.68;86.24;98777.66;4126521;28;20628;-86
2022/07/12 02:11:38;;;;;;;5.20;4.30;;;;;;;17.65;86.62;98775.28;4113689;28;20699;-86
2022/07/12 02:13:43;;;;;;;5.40;4.90;;;;;;;17.59;86.37;98775.78;4129836;28;21332;-86
2022/07/12 02:15:46;;;;;;;6.53;4.50;;;;;;;17.55;86.20;98774.41;4127399;28;20692;-86
2022/07/12 02:17:49;;;;;;;4.93;4.40;;;;;;;17.50;87.26;98777.44;4108989;28;21087;-86
2022/07/12 02:19:52;;;;;;;5.60;4.67;;;;;;;17.48;86.07;98776.75;4127491;28;20648;-86
2022/07/12 02:21:55;;;;;;;5.07;4.57;;;;;;;17.47;86.38;98776.88;4125410;28;20643;-85
2022/07/12 02:23:59;;;;;;;5.30;4.80;;;;;;;17.44;86.72;98776.28;4111974;28;20669;-86
2022/07/12 02:26:02;;;;;;;5.50;4.33;;;;;;;17.42;87.34;98775.56;4109283;28;21019;-86
2022/07/12 02:28:05;;;;;;;5.77;4.70;;;;;;;17.39;87.02;98783.75;4107040;28;20640;-86
2022/07/12 02:30:11;;;;;;;4.90;4.40;;;;;;;17.36;87.10;98786.66;4114241;28;20629;-85
2022/07/12 02:32:15;;;;;;;5.40;4.30;;;;;;;17.36;86.75;98782.19;4111877;28;20631;-86
2022/07/12 02:34:18;;;;;;;5.10;4.60;;;;;;;17.35;87.52;98782.31;4110553;28;20640;-86
2022/07/12 02:36:21;;;;;;;4.63;4.23;;;;;;;17.28;86.26;98778.56;4128045;28;20636;-85
2022/07/12 02:38:24;;;;;;;5.67;4.80;;;;;;;17.25;87.48;98778.81;4128974;28;21222;-86
2022/07/12 02:42:49;;;;;;;8.23;4.87;;;;;;;17.19;87.17;98777.47;4129494;28;20646;-85
2022/07/12 02:44:53;;;;;;;5.07;4.57;;;;;;;17.18;87.96;98778.44;4132249;28;20650;-86
2022/07/12 02:46:57;;;;;;;4.90;4.50;;;;;;;17.18;88.26;98780.25;4113754;28;21005;-86
2022/07/12 02:49:00;;;;;;;5.37;4.87;;;;;;;17.17;87.99;98776.78;4130547;28;20695;-86
2022/07/12 02:51:05;;;;;;;5.20;4.70;;;;;;;17.11;88.08;98774.66;4129154;28;20643;-86
2022/07/12 02:53:09;;;;;;;5.30;4.77;;;;;;;17.11;87.87;98781.75;4129905;28;20635;-86
2022/07/12 02:55:12;;;;;;;5.30;4.57;;;;;;;17.09;88.23;98775.72;4125850;28;21056;-85
2022/07/12 02:57:15;;;;;;;4.93;4.53;;;;;;;17.05;87.99;98779.59;4107933;28;20641;-86
2022/07/12 02:59:19;;;;;;;5.50;5.00;;;;;;;17.01;88.08;98779.00;4095151;28;20641;-86
2022/07/12 03:01:22;;;;;;;6.03;4.70;;;;;;;16.98;87.57;98783.72;4093880;29;20649;-85
2022/07/12 03:03:26;;;;;;;5.57;5.07;;;;;;;16.98;87.02;98788.97;4108551;28;20621;-86
2022/07/12 03:05:29;;;;;;;5.23;4.73;;;;;;;16.96;88.00;98785.63;4111980;28;20644;-86
2022/07/12 03:07:33;;;;;;;5.43;4.90;;;;;;;16.93;87.05;98788.53;4128227;28;20640;-86
2022/07/12 03:09:36;;;;;;;5.77;4.93;;;;;;;16.90;88.85;98780.88;4107326;28;20641;-86
2022/07/12 03:11:39;;;;;;;4.97;4.47;;;;;;;16.84;87.74;98786.66;4110440;28;20642;-86
2022/07/12 03:13:42;;;;;;;5.40;4.80;;;;;;;16.80;88.09;98789.66;4131568;28;20709;-86
2022/07/12 03:15:46;;;;;;;6.07;5.47;;;;;;;16.80;88.92;98800.19;4110333;28;20638;-85
2022/07/12 03:17:49;;;;;;;6.10;5.17;;;;;;;16.80;87.02;98795.75;4128230;28;20659;-86
2022/07/12 03:19:54;;;;;;;5.63;4.90;;;;;;;16.78;87.42;98805.59;4112720;28;20632;-86
2022/07/12 03:21:57;;;;;;;5.00;4.50;;;;;;;16.70;87.77;98800.13;4112059;28;21260;-86
2022/07/12 03:24:00;;;;;;;6.23;5.40;;;;;;;16.64;87.82;98808.53;4109801;28;20689;-86
2022/07/12 03:26:03;;;;;;;6.27;5.27;;;;;;;16.60;89.01;98811.53;4111203;28;20664;-86
2022/07/12 03:28:06;;;;;;;5.90;4.77;;;;;;;16.58;88.75;98806.38;4110997;28;20636;-86
2022/07/12 03:30:09;;;;;;;7.20;5.03;;;;;;;16.56;88.74;98799.56;4128023;28;21036;-86
2022/07/12 03:32:12;;;;;;;6.83;5.10;;;;;;;16.57;87.82;98802.06;4128158;28;20649;-86
2022/07/12 03:34:16;;;;;;;9.23;5.37;;;;;;;16.56;88.40;98803.03;4127332;28;21307;-86
2022/07/12 03:36:20;;;;;;;9.03;5.60;;;;;;;16.55;87.88;98806.63;4110729;28;20642;-86
2022/07/12 03:38:23;;;;;;;6.33;5.43;;;;;;;16.55;87.80;98805.78;4112392;28;20772;-86
2022/07/12 03:40:26;;;;;;;6.57;5.97;;;;;;;16.54;88.30;98806.75;4108403;28;20653;-85
2022/07/12 03:42:29;;;;;;;7.60;6.20;;;;;;;16.53;88.21;98813.81;4128170;28;20667;-86
2022/07/12 03:44:33;;;;;;;5.70;5.17;;;;;;;16.52;89.85;98816.56;4113611;28;20658;-86
2022/07/12 03:46:36;;;;;;;6.23;5.63;;;;;;;16.50;89.06;98821.13;4130474;28;20686;-86
2022/07/12 03:48:39;;;;;;;6.50;5.60;;;;;;;16.48;89.16;98820.41;4132201;28;20650;-86
2022/07/12 03:50:42;;;;;;;5.80;5.20;;;;;;;16.46;89.48;98824.13;4127152;28;20635;-86
2022/07/12 03:52:47;;;;;;;6.13;5.27;;;;;;;16.46;89.53;98821.50;4119663;28;20719;-86
2022/07/12 03:54:50;;;;;;;6.47;5.30;;;;;;;16.45;88.33;98825.94;4107159;28;20651;-86
2022/07/12 03:59:14;;;;;;;6.93;5.77;;;;;;;16.37;88.65;98838.03;4127536;28;20611;-86
2022/07/12 04:01:17;;;;;;;6.40;5.73;;;;;;;16.35;89.52;98840.78;4110203;28;20663;-86
2022/07/12 04:03:20;;;;;;;5.87;5.27;;;;;;;16.35;89.86;98838.16;4128678;28;20643;-86
2022/07/12 04:05:26;;;;;;;5.73;5.13;;;;;;;16.38;87.91;98835.25;4098506;28;20761;-86
2022/07/12 04:07:29;;;;;;;6.20;5.60;;;;;;;16.41;88.93;98842.91;4108376;28;20731;-86
2022/07/12 04:09:34;;;;;;;7.03;5.40;;;;;;;16.39;89.33;98846.63;4120973;28;20631;-86
2022/07/12 04:11:37;;;;;;;6.20;5.00;;;;;;;16.38;88.91;98858.97;4106909;28;20636;-86
2022/07/12 04:13:40;;;;;;;7.07;6.20;;;;;;;16.41;88.32;98857.91;4126218;28;20630;-84
2022/07/12 04:15:43;;;;;;;7.40;5.53;;;;;;;16.42;88.97;98854.28;4110705;28;20812;-85
2022/07/12 04:17:47;;;;;;;6.30;5.30;;;;;;;16.44;90.06;98855.84;4126904;28;20651;-87
2022/07/12 04:19:50;;;;;;;6.50;5.67;;;;;;;16.43;90.01;98851.53;4091911;28;21262;-84
2022/07/12 04:21:53;;;;;;;6.70;6.00;;;;;;;16.44;89.94;98852.38;4127372;28;20667;-85
2022/07/12 04:23:56;;;;;;;6.17;5.57;;;;;;;16.44;88.52;98852.38;4108048;28;20654;-84
2022/07/12 04:26:01;;;;;;;6.80;5.97;;;;;;;16.45;88.33;98854.03;4123957;28;20642;-86
2022/07/12 04:28:04;;;;;;;7.73;6.00;;;;;;;16.48;89.13;98853.78;4113472;28;20690;-86
2022/07/12 04:30:08;;;;;;;7.30;5.73;;;;;;;16.51;88.46;98855.25;4112735;28;20639;-85
2022/07/12 04:32:11;;;;;;;6.40;5.33;;;;;;;16.53;90.08;98855.13;4113235;28;20686;-85
2022/07/12 04:34:16;;;;;;;7.20;5.60;;;;;;;16.54;89.64;98856.81;4127963;28;20638;-85
2022/07/12 04:36:21;;;;;;;7.17;5.53;;;;;;;16.54;88.37;98856.81;4115828;28;20647;-85
2022/07/12 04:38:24;;;;;;;7.13;6.07;;;;;;;16.53;89.32;98855.94;4128079;28;21121;-85
2022/07/12 04:40:28;;;;;;;11.13;6.47;;;;;;;16.54;89.02;98856.81;4108840;28;20670;-85
2022/07/12 04:42:32;;;;;;;7.03;5.90;;;;;;;16.54;89.05;98855.00;4110168;28;20660;-84
2022/07/12 04:44:35;;;;;;;8.73;5.90;;;;;;;16.57;90.31;98848.66;4128734;28;20700;-85
2022/07/12 04:46:41;;;;;;;8.50;6.50;;;;;;;16.62;88.43;98860.47;4112820;28;20655;-84
2022/07/12 04:48:44;;;;;;;7.97;5.87;;;;;;;16.66;90.27;98866.34;4112598;28;20636;-84
2022/07/12 04:50:47;;;;;;;5.77;5.17;;;;;;;16.71;89.36;98867.66;4119116;28;21203;-84
2022/07/12 04:52:52;;;;;;;6.13;5.53;;;;;;;16.76;88.71;98868.09;4112066;28;20643;-84
2022/07/12 04:54:55;;;;;;;6.87;5.03;;;;;;;16.82;88.78;98870.25;4111553;28;20635;-86
2022/07/12 04:56:59;;;;;;;5.90;5.00;;;;;;;16.93;89.94;98872.88;4130490;28;20665;-86
2022/07/12 04:59:03;;;;;;;8.00;6.33;;;;;;;17.04;89.68;98870.19;4126792;28;20608;-85
2022/07/12 05:01:07;;;;;;;7.80;5.87;;;;;;;17.12;88.68;98867.75;4112163;28;20632;-86
2022/07/12 05:03:10;;;;;;;7.70;5.97;;;;;;;17.22;86.96;98869.53;4126692;28;20628;-86
2022/07/12 05:05:14;;;;;;;8.03;6.40;;;;;;;17.28;88.71;98866.41;4129082;28;20635;-86
2022/07/12 05:07:17;;;;;;;6.60;5.40;;;;;;;17.35;88.40;98869.34;4129013;28;20655;-85
2022/07/12 05:09:20;;;;;;;8.40;5.50;;;;;;;17.39;89.46;98863.69;4110022;28;21287;-85
2022/07/12 05:11:23;;;;;;;8.30;7.23;;;;;;;17.43;88.46;98869.56;4129978;28;20628;-84
2022/07/12 05:13:26;;;;;;;7.10;6.33;;;;;;;17.48;88.96;98873.47;4113396;28;20625;-86
2022/07/12 05:15:31;;;;;;;6.80;6.03;;;;;;;17.56;88.75;98874.53;4132430;28;20635;-88
2022/07/12 05:17:34;;;;;;;7.87;6.00;;;;;;;17.64;89.04;98874.72;4129002;28;21288;-89
2022/07/12 05:19:38;;;;;;;7.90;5.33;;;;;;;17.73;88.37;98870.47;4112542;28;20633;-85
2022/07/12 05:21:41;;;;;;;5.10;4.60;;;;;;;17.85;87.03;98866.81;4110340;28;20672;-87
2022/07/12 05:23:45;;;;;;;5.00;4.23;;;;;;;17.96;87.66;98865.72;4127002;28;20634;-83
2022/07/12 05:25:50;;;;;;;5.23;3.80;;;;;;;18.09;87.25;98876.09;4109151;28;20648;-83
2022/07/12 05:27:53;;;;;;;5.37;4.53;;;;;;;18.17;86.56;98879.75;4128251;28;20640;-84
2022/07/12 05:29:56;;;;;;;3.53;3.23;;;;;;;18.29;86.24;98884.00;4112448;28;20668;-83
2022/07/12 05:32:01;;;;;;;7.20;5.90;;;;;;;18.40;85.21;98880.44;4114507;28;20633;-83
2022/07/12 05:34:12;;;;;;;5.90;5.30;;;;;;;18.50;86.19;98896.16;4127945;28;20637;-83
2022/07/12 05:36:15;;;;;;;7.10;6.40;;;;;;;18.60;86.50;98894.41;4113063;28;20638;-86
2022/07/12 05:38:19;;;;;;;6.63;5.93;;;;;;;18.68;86.36;98899.84;4112628;28;20646;-85
2022/07/12 05:40:22;;;;;;;6.43;5.83;;;;;;;18.73;84.59;98907.38;4113360;28;20692;-85
2022/07/12 05:42:25;;;;;;;7.20;6.30;;;;;;;18.84;84.98;98900.19;4105423;28;21315;-86
2022/07/12 05:44:28;;;;;;;8.20;6.33;;;;;;;18.97;83.43;98901.59;4098322;28;20628;-85
2022/07/12 05:46:31;;;;;;;6.10;5.13;;;;;;;19.19;83.94;98904.00;4093967;28;20643;-84
2022/07/12 05:48:36;;;;;;;8.47;6.30;;;;;;;19.47;84.65;98906.69;4126187;28;20683;-85
2022/07/12 05:50:39;;;;;;;7.00;5.50;;;;;;;19.67;82.98;98897.75;4094969;28;20638;-85
2022/07/12 05:55:03;;;;;;;7.03;5.70;;;;;;;19.88;82.52;98911.69;4106344;28;20643;-85
2022/07/12 05:57:06;;;;;;;6.83;5.80;;;;;;;20.11;82.06;98915.69;4123322;28;20653;-85
2022/07/12 05:59:10;;;;;;;9.20;6.10;;;;;;;20.46;80.59;98920.19;4098013;28;20635;-85
2022/07/12 06:01:13;;;;;;;8.03;6.17;;;;;;;20.87;79.07;98917.91;4094082;29;20640;-85
2022/07/12 06:03:16;;;;;;;6.80;5.00;;;;;;;21.28;78.70;98927.97;4109119;28;21328;-85
2022/07/12 06:05:22;;;;;;;5.20;4.30;;;;;;;21.53;76.45;98921.94;4128257;28;20727;-85
2022/07/12 06:07:25;;;;;;;4.43;3.37;;;;;;;21.70;75.71;98923.78;4125931;28;21309;-85
2022/07/12 06:09:28;;;;;;;4.80;3.70;;;;;;;21.89;74.52;98924.41;4106442;28;21044;-85
2022/07/12 06:11:32;;;;;;;3.90;3.33;;;;;;;22.03;73.96;98929.19;4087263;29;21305;-85
2022/07/12 06:13:35;;;;;;;4.33;3.10;;;;;;;22.25;73.79;98932.19;4128267;28;20624;-85
2022/07/12 06:15:39;;;;;;;3.70;3.30;;;;;;;22.52;73.90;98940.84;4126045;28;20656;-85
2022/07/12 06:17:42;;;;;;;3.43;2.83;;;;;;;22.62;73.35;98935.41;4108741;28;20630;-85
2022/07/12 06:19:45;;;;;;;4.10;3.10;;;;;;;22.64;72.69;98939.56;4112584;28;20633;-86
2022/07/12 06:21:50;;;;;;;4.10;3.40;;;;;;;22.68;72.63;98934.78;4109429;28;21254;-86
2022/07/12 06:23:53;;;;;;;3.50;2.90;;;;;;;22.96;72.82;98939.75;4094293;28;20641;-86
2022/07/12 06:25:56;;;;;;;4.00;3.60;;;;;;;23.34;71.63;98942.69;4097084;28;20639;-85
2022/07/12 06:28:01;;;;;;;3.40;3.00;;;;;;;23.59;70.00;98942.59;4112630;28;21109;-85
2022/07/12 06:30:05;;;;;;;3.17;2.80;;;;;;;23.79;69.30;98947.44;4116802;28;20622;-86
2022/07/12 06:32:11;;;;;;;4.30;3.00;;;;;;;23.98;68.76;98948.94;4115422;28;21463;-87
2022/07/12 06:34:14;;;;;;;3.30;2.90;;;;;;;24.02;67.30;98953.78;4127331;28;20690;-87
2022/07/12 06:36:17;;;;;;;2.77;2.50;;;;;;;24.23;67.59;98951.44;4108399;28;20652;-86
2022/07/12 06:38:21;;;;;;;3.10;2.50;;;;;;;24.58;69.88;98951.88;4128040;28;20637;-86
2022/07/12 06:40:25;;;;;;;5.23;2.30;;;;;;;24.81;66.84;98958.19;4110255;28;20664;-86
2022/07/12 06:42:28;;;;;;;2.37;2.00;;;;;;;24.96;65.88;98956.44;4127307;28;20720;-87
2022/07/12 06:44:35;;;;;;;3.53;2.30;;;;;;;25.18;67.92;98956.53;4123005;28;20644;-87
2022/07/12 06:46:38;;;;;;;2.70;2.10;;;;;;;25.41;66.73;98955.59;4126108;28;21226;-87
2022/07/12 06:48:44;;;;;;;2.47;1.87;;;;;;;25.64;65.58;98964.50;4123320;28;21232;-87
2022/07/12 06:50:48;;;;;;;2.40;1.50;;;;;;;25.83;63.29;98956.84;4112643;28;20643;-87
2022/07/12 06:52:51;;;;;;;2.33;2.00;;;;;;;25.93;64.38;98960.09;4107813;28;21680;-89
2022/07/12 06:54:56;;;;;;;2.37;1.53;;;;;;;26.14;63.81;98962.94;4104688;28;20626;-87
2022/07/12 06:56:59;;;;;;;2.30;1.70;;;;;;;26.30;64.33;98966.34;4126750;28;20657;-88
2022/07/12 06:59:02;;;;;;;2.77;2.10;;;;;;;26.43;62.67;98963.88;4123820;28;20724;-88
2022/07/12 07:01:05;;;;;;;2.10;1.60;;;;;;;26.54;62.85;98960.75;4110452;28;20650;-87
2022/07/12 07:03:08;;;;;;;3.70;1.83;;;;;;;26.66;62.02;98954.75;4127068;28;20667;-88
2022/07/12 07:05:12;;;;;;;2.00;1.67;;;;;;;26.91;63.25;98958.00;4108845;28;20650;-88
2022/07/12 07:07:15;;;;;;;3.60;1.83;;;;;;;27.00;62.12;98964.94;4106611;28;20702;-88
2022/07/12 07:09:18;;;;;;;2.90;2.30;;;;;;;27.09;60.92;98957.47;4121582;28;20641;-88
2022/07/12 07:11:24;;;;;;;1.70;1.30;;;;;;;27.04;61.62;98959.03;4108649;28;20638;-88
2022/07/12 07:13:27;;;;;;;2.53;1.73;;;;;;;27.14;62.16;98964.94;4124413;28;21193;-88
2022/07/12 07:15:31;;;;;;;1.77;1.43;;;;;;;27.26;60.56;98969.63;4111681;28;20639;-88
2022/07/12 07:17:34;;;;;;;4.03;1.60;;;;;;;27.24;58.53;98965.47;4116391;28;20619;-88
2022/07/12 07:19:38;;;;;;;3.60;1.63;;;;;;;27.25;59.63;98965.28;4123571;28;20735;-88
2022/07/12 07:21:41;;;;;;;2.50;1.47;;;;;;;27.33;60.55;98970.53;4113735;28;20630;-88
2022/07/12 07:23:44;;;;;;;4.80;1.50;;;;;;;27.52;60.89;98975.34;4122215;28;20655;-87
2022/07/12 07:25:47;;;;;;;6.50;1.70;;;;;;;27.66;59.54;98979.81;4108118;28;20650;-88
2022/07/12 07:27:52;;;;;;;3.20;1.50;;;;;;;27.69;58.69;98982.94;4124026;28;20617;-88
2022/07/12 07:32:16;;;;;;;1.57;1.10;;;;;;;28.07;58.36;98990.59;4109817;28;20635;-88
2022/07/12 07:34:19;;;;;;;2.03;1.30;;;;;;;28.14;56.93;98990.66;4126600;28;20792;-88
2022/07/12 07:36:22;;;;;;;1.40;1.00;;;;;;;28.12;55.99;98990.88;4124229;28;20678;-88
2022/07/12 07:38:25;;;;;;;1.83;1.13;;;;;;;28.16;59.45;98985.94;4101596;28;20643;-88
2022/07/12 07:40:29;;;;;;;1.57;1.00;;;;;;;28.38;57.09;98984.91;4109844;28;21084;-87
2022/07/12 07:42:32;;;;;;;1.97;1.17;;;;;;;28.50;56.38;98984.16;4110005;28;20628;-88
2022/07/12 07:44:37;;;;;;;2.83;0.90;;;;;;;28.60;57.56;98990.03;4128866;28;20640;-88
2022/07/12 07:47:00;;;;;;;1.50;0.80;;;;;;;28.66;55.71;98987.44;4106568;28;20631;-88
2022/07/12 07:49:03;;;;;;;1.50;0.87;;;;;;;28.77;54.06;98975.31;4094981;28;20640;-88
2022/07/12 07:51:06;;;;;;;1.40;0.73;;;;;;;28.86;53.23;98976.81;4113224;28;20636;-88
2022/07/12 07:53:09;;;;;;;1.40;0.70;;;;;;;28.64;53.31;98972.50;4094118;28;21205;-88
2022/07/12 07:55:12;;;;;;;2.07;0.80;;;;;;;28.67;53.40;98980.19;4108057;28;20645;-88
2022/07/12 07:57:15;;;;;;;1.40;0.70;;;;;;;28.47;53.69;98984.56;4108461;28;20702;-88
2022/07/12 07:59:18;;;;;;;1.23;0.70;;;;;;;28.29;54.92;98972.63;4109008;28;20646;-88
2022/07/12 08:01:42;;;;;;;1.40;0.80;;;;;;;27.76;53.84;98972.31;4112953;28;20664;-87
2022/07/12 08:03:45;;;;;;;3.43;0.83;;;;;;;27.10;55.34;98961.78;4108164;28;20776;-88
2022/07/12 08:05:50;;;;;;;1.23;0.60;;;;;;;26.77;55.84;98966.84;4123346;28;20667;-88
2022/07/12 08:07:54;;;;;;;1.30;0.60;;;;;;;26.76;56.22;98959.81;4124625;28;20682;-88
2022/07/12 08:09:57;;;;;;;2.53;1.07;;;;;;;27.35;57.27;98968.50;4128196;28;20647;-88
2022/07/12 08:12:01;;;;;;;1.30;0.70;;;;;;;27.96;55.51;98973.34;4127097;28;21206;-88
2022/07/12 08:14:04;;;;;;;1.20;0.70;;;;;;;28.35;53.98;98967.31;4131813;28;20670;-88
2022/07/12 08:16:08;;;;;;;1.57;0.73;;;;;;;28.36;54.25;98970.84;4106630;28;20660;-88
2022/07/12 08:18:12;;;;;;;1.30;0.70;;;;;;;28.67;54.83;98964.06;4107827;28;21064;-89
2022/07/12 08:20:15;;;;;;;1.30;0.70;;;;;;;29.08;53.39;98971.97;4113678;28;20640;-88
2022/07/12 08:22:43;;;;;;;1.60;0.80;;;;;;;29.45;53.52;98965.34;4125440;28;21251;-88
2022/07/12 08:24:47;;;;;;;1.50;0.80;;;;;;;29.71;53.21;98971.63;4123347;28;20664;-88
2022/07/12 08:26:50;;;;;;;1.30;0.80;;;;;;;29.68;50.97;98972.03;4129407;28;20638;-88
2022/07/12 08:28:53;;;;;;;1.10;0.60;;;;;;;29.64;52.35;98974.31;4129503;28;20626;-89
2022/07/12 08:30:56;;;;;;;1.40;0.77;;;;;;;30.08;53.96;98975.47;4104280;28;20651;-88
2022/07/12 08:32:59;;;;;;;1.30;0.70;;;;;;;30.36;51.10;98968.06;4088841;28;20664;-89
2022/07/12 08:35:05;;;;;;;1.40;0.70;;;;;;;30.30;53.49;98968.03;4107059;28;21011;-90
2022/07/12 08:37:08;;;;;;;1.60;1.00;;;;;;;30.40;51.36;98971.16;4104566;28;20666;-90
2022/07/12 08:39:11;;;;;;;2.20;0.87;;;;;;;30.53;50.58;98975.50;4124473;28;20730;-88
2022/07/12 08:41:15;;;;;;;2.03;0.90;;;;;;;30.06;51.22;98968.66;4114335;28;20670;-91
2022/07/12 08:43:27;;;;;;;1.30;0.80;;;;;;;29.66;51.33;98971.41;4108608;28;20641;-91
2022/07/12 08:45:33;;;;;;;1.37;0.90;;;;;;;29.28;51.43;98964.88;4112475;28;20633;-91
2022/07/12 08:47:37;;;;;;;1.20;0.67;;;;;;;28.76;54.04;98963.75;4112758;28;20633;-91
2022/07/12 08:49:40;;;;;;;1.30;0.80;;;;;;;28.49;54.15;98967.22;4125635;28;20654;-91
2022/07/12 08:51:45;;;;;;;1.50;0.87;;;;;;;28.41;53.75;98968.41;4113365;28;21087;-91
2022/07/12 08:53:49;;;;;;;1.50;0.90;;;;;;;28.46;54.09;98958.72;4123217;28;20996;-91
2022/07/12 08:55:52;;;;;;;1.60;0.90;;;;;;;28.39;54.21;98971.28;4108556;28;20675;-91
2022/07/12 08:57:56;;;;;;;1.30;0.70;;;;;;;28.14;53.33;98963.81;4119443;28;21489;-92
2022/07/12 09:00:00;;;;;;;1.20;0.60;;;;;;;27.90;54.39;98972.22;4106878;28;20688;-91
2022/07/12 09:02:03;;;;;;;1.30;0.80;;;;;;;27.69;54.70;98971.41;4126799;28;20642;-91
2022/07/12 09:04:16;;;;;;;3.13;2.93;;;;;;;27.39;54.83;98968.94;4124811;28;20655;-91
2022/07/12 09:06:23;;;;;;;1.30;0.70;;;;;;;27.19;55.15;98967.88;4125779;28;20725;-92
2022/07/12 09:08:29;;;;;;;1.30;0.70;;;;;;;26.94;54.90;98969.19;4128213;28;20642;-91
2022/07/12 09:10:32;;;;;;;2.60;0.83;;;;;;;26.76;56.02;98966.03;4121896;28;21031;-91
2022/07/12 09:12:36;;;;;;;1.70;0.70;;;;;;;26.77;56.89;98962.31;4121571;28;20641;-92
2022/07/12 09:14:43;;;;;;;1.57;1.03;;;;;;;26.75;58.07;98975.06;4115219;28;20632;-91
2022/07/12 09:16:59;;;;;;;1.73;0.80;;;;;;;26.71;58.00;98967.59;4111545;28;20646;-90
2022/07/12 09:19:16;;;;;;;1.33;0.80;;;;;;;26.69;59.95;98958.91;4109887;28;21238;-90
2022/07/12 09:21:50;;;;;;;1.37;0.67;;;;;;;26.63;57.91;98967.69;4102992;28;20755;-90
2022/07/12 09:23:56;;;;;;;1.67;0.77;;;;;;;26.81;59.86;98962.81;4128984;28;20738;-90
2022/07/12 09:26:01;;;;;;;1.93;0.90;;;;;;;27.29;56.86;98965.72;4129142;28;20697;-90
2022/07/12 09:28:10;;;;;;;1.87;0.80;;;;;;;27.83;57.19;98979.41;4111514;28;20635;-90
2022/07/12 09:30:13;;;;;;;1.50;0.70;;;;;;;28.37;57.13;98976.03;4128062;28;20631;-90
2022/07/12 09:37:01;;;;;;;1.40;0.70;;;;;;;28.31;56.01;98971.44;4128818;28;20666;-90
2022/07/12 09:39:06;;;;;;;1.30;0.80;;;;;;;27.83;54.07;98970.50;4110079;28;20808;-90
2022/07/12 09:41:09;;;;;;;1.30;0.70;;;;;;;27.89;55.17;98975.97;4110648;28;20650;-90
2022/07/12 09:43:13;;;;;;;1.37;0.83;;;;;;;28.19;57.00;98981.03;4113613;28;21261;-90
2022/07/12 09:45:17;;;;;;;1.30;0.63;;;;;;;28.28;54.76;98974.50;4126680;28;20666;-90
2022/07/12 09:47:20;;;;;;;1.50;0.87;;;;;;;28.46;54.26;98977.50;4127818;28;21286;-90
2022/07/12 09:49:24;;;;;;;1.30;0.63;;;;;;;28.37;54.00;98970.66;4111789;28;21003;-91
2022/07/12 09:51:29;;;;;;;1.23;0.70;;;;;;;28.51;53.19;98981.28;4110947;28;20655;-90
2022/07/12 09:53:35;;;;;;;2.40;0.73;;;;;;;28.49;52.84;98977.13;4125344;28;20628;-91
2022/07/12 09:55:40;;;;;;;1.40;0.90;;;;;;;28.48;53.84;98970.94;4107730;28;21055;-90
2022/07/12 09:57:45;;;;;;;1.40;0.80;;;;;;;28.65;55.47;98976.84;4128679;28;20672;-90
2022/07/12 10:00:26;;;;;;;1.60;0.80;;;;;;;28.64;53.75;98972.50;4111121;28;21061;-90